sensor_id;sensor_type;location;lat;lon;timestamp;P1;durP1;ratioP1;P2;durP2;ratioP2
69894;SDS011;57172;52.034;5.090;2023-02-10T00:01:13;31.42;;;12.43;;
69894;SDS011;57172;52.034;5.090;2023-02-10T00:03:42;30.35;;;12.27;;
69894;SDS011;57172;52.034;5.090;2023-02-10T00:06:09;29.73;;;11.40;;
69894;SDS011;57172;52.034;5.090;2023-02-10T00:08:37;26.97;;;10.77;;
69894;SDS011;57172;52.034;5.090;2023-02-10T00:11:07;26.88;;;11.93;;
69894;SDS011;57172;52.034;5.090;2023-02-10T00:13:36;30.35;;;11.23;;
69894;SDS011;57172;52.034;5.090;2023-02-10T00:16:05;27.35;;;11.80;;
69894;SDS011;57172;52.034;5.090;2023-02-10T00:18:34;25.83;;;11.45;;
69894;SDS011;57172;52.034;5.090;2023-02-10T00:21:05;28.87;;;10.63;;
69894;SDS011;57172;52.034;5.090;2023-02-10T00:23:35;32.05;;;11.20;;
69894;SDS011;57172;52.034;5.090;2023-02-10T00:26:03;26.90;;;11.27;;
69894;SDS011;57172;52.034;5.090;2023-02-10T00:28:31;26.95;;;10.70;;
69894;SDS011;57172;52.034;5.090;2023-02-10T00:30:59;27.83;;;10.30;;
69894;SDS011;57172;52.034;5.090;2023-02-10T00:33:31;26.63;;;9.97;;
69894;SDS011;57172;52.034;5.090;2023-02-10T00:35:58;29.10;;;10.10;;
69894;SDS011;57172;52.034;5.090;2023-02-10T00:38:25;25.27;;;9.15;;
69894;SDS011;57172;52.034;5.090;2023-02-10T00:40:51;31.40;;;10.38;;
69894;SDS011;57172;52.034;5.090;2023-02-10T00:43:18;21.77;;;10.07;;
69894;SDS011;57172;52.034;5.090;2023-02-10T00:45:45;21.73;;;9.70;;
69894;SDS011;57172;52.034;5.090;2023-02-10T00:48:13;27.35;;;10.02;;
69894;SDS011;57172;52.034;5.090;2023-02-10T00:50:39;28.73;;;10.48;;
69894;SDS011;57172;52.034;5.090;2023-02-10T00:53:06;30.50;;;10.10;;
69894;SDS011;57172;52.034;5.090;2023-02-10T00:55:33;27.13;;;9.93;;
69894;SDS011;57172;52.034;5.090;2023-02-10T00:58:01;27.73;;;11.63;;
69894;SDS011;57172;52.034;5.090;2023-02-10T01:00:28;29.02;;;11.15;;
69894;SDS011;57172;52.034;5.090;2023-02-10T01:02:55;35.40;;;12.60;;
69894;SDS011;57172;52.034;5.090;2023-02-10T01:05:22;30.30;;;11.95;;
69894;SDS011;57172;52.034;5.090;2023-02-10T01:07:49;25.00;;;11.25;;
69894;SDS011;57172;52.034;5.090;2023-02-10T01:10:15;30.93;;;11.20;;
69894;SDS011;57172;52.034;5.090;2023-02-10T01:12:44;31.88;;;12.15;;
69894;SDS011;57172;52.034;5.090;2023-02-10T01:15:11;29.42;;;11.65;;
69894;SDS011;57172;52.034;5.090;2023-02-10T01:17:39;24.50;;;10.70;;
69894;SDS011;57172;52.034;5.090;2023-02-10T01:20:06;31.35;;;11.27;;
69894;SDS011;57172;52.034;5.090;2023-02-10T01:22:34;29.20;;;10.73;;
69894;SDS011;57172;52.034;5.090;2023-02-10T01:25:03;21.45;;;9.32;;
69894;SDS011;57172;52.034;5.090;2023-02-10T01:27:30;26.63;;;11.32;;
69894;SDS011;57172;52.034;5.090;2023-02-10T01:29:57;24.90;;;10.75;;
69894;SDS011;57172;52.034;5.090;2023-02-10T01:32:24;26.33;;;11.20;;
69894;SDS011;57172;52.034;5.090;2023-02-10T01:34:51;31.43;;;10.70;;
69894;SDS011;57172;52.034;5.090;2023-02-10T01:37:18;26.10;;;11.38;;
69894;SDS011;57172;52.034;5.090;2023-02-10T01:39:44;31.08;;;11.75;;
69894;SDS011;57172;52.034;5.090;2023-02-10T01:42:12;31.17;;;11.40;;
69894;SDS011;57172;52.034;5.090;2023-02-10T01:47:07;29.57;;;11.63;;
69894;SDS011;57172;52.034;5.090;2023-02-10T01:49:36;27.45;;;12.02;;
69894;SDS011;57172;52.034;5.090;2023-02-10T01:52:10;27.15;;;12.05;;
69894;SDS011;57172;52.034;5.090;2023-02-10T01:54:44;27.80;;;11.60;;
69894;SDS011;57172;52.034;5.090;2023-02-10T01:57:16;30.33;;;11.50;;
69894;SDS011;57172;52.034;5.090;2023-02-10T01:59:44;35.67;;;12.33;;
69894;SDS011;57172;52.034;5.090;2023-02-10T02:02:11;28.98;;;12.43;;
69894;SDS011;57172;52.034;5.090;2023-02-10T02:04:42;31.35;;;10.73;;
69894;SDS011;57172;52.034;5.090;2023-02-10T02:07:21;34.08;;;13.15;;
69894;SDS011;57172;52.034;5.090;2023-02-10T02:09:51;31.05;;;12.68;;
69894;SDS011;57172;52.034;5.090;2023-02-10T02:12:22;32.83;;;12.30;;
69894;SDS011;57172;52.034;5.090;2023-02-10T02:15:35;30.45;;;12.48;;
69894;SDS011;57172;52.034;5.090;2023-02-10T02:18:12;35.15;;;12.90;;
69894;SDS011;57172;52.034;5.090;2023-02-10T02:21:09;33.63;;;13.30;;
69894;SDS011;57172;52.034;5.090;2023-02-10T02:34:53;34.85;;;12.98;;
69894;SDS011;57172;52.034;5.090;2023-02-10T02:37:29;33.10;;;14.05;;
69894;SDS011;57172;52.034;5.090;2023-02-10T02:39:57;35.67;;;13.30;;
69894;SDS011;57172;52.034;5.090;2023-02-10T02:42:25;33.65;;;13.98;;
69894;SDS011;57172;52.034;5.090;2023-02-10T02:44:57;39.50;;;14.68;;
69894;SDS011;57172;52.034;5.090;2023-02-10T02:50:21;35.30;;;14.15;;
69894;SDS011;57172;52.034;5.090;2023-02-10T03:04:11;44.53;;;15.18;;
69894;SDS011;57172;52.034;5.090;2023-02-10T03:06:39;40.03;;;14.57;;
69894;SDS011;57172;52.034;5.090;2023-02-10T03:09:06;36.63;;;12.63;;
69894;SDS011;57172;52.034;5.090;2023-02-10T03:11:33;38.15;;;14.43;;
69894;SDS011;57172;52.034;5.090;2023-02-10T03:14:00;41.92;;;13.60;;
69894;SDS011;57172;52.034;5.090;2023-02-10T03:16:27;37.97;;;14.20;;
69894;SDS011;57172;52.034;5.090;2023-02-10T03:18:54;39.43;;;15.13;;
69894;SDS011;57172;52.034;5.090;2023-02-10T03:21:21;37.65;;;13.70;;
69894;SDS011;57172;52.034;5.090;2023-02-10T03:23:48;36.53;;;13.35;;
69894;SDS011;57172;52.034;5.090;2023-02-10T03:26:15;32.50;;;13.77;;
69894;SDS011;57172;52.034;5.090;2023-02-10T03:28:43;30.08;;;13.30;;
69894;SDS011;57172;52.034;5.090;2023-02-10T03:31:10;35.80;;;13.27;;
69894;SDS011;57172;52.034;5.090;2023-02-10T03:33:37;34.85;;;13.90;;
69894;SDS011;57172;52.034;5.090;2023-02-10T03:36:04;38.90;;;13.25;;
69894;SDS011;57172;52.034;5.090;2023-02-10T03:38:31;34.38;;;13.20;;
69894;SDS011;57172;52.034;5.090;2023-02-10T03:40:58;36.15;;;14.65;;
69894;SDS011;57172;52.034;5.090;2023-02-10T03:43:24;34.30;;;14.37;;
69894;SDS011;57172;52.034;5.090;2023-02-10T03:45:51;35.05;;;14.25;;
69894;SDS011;57172;52.034;5.090;2023-02-10T03:48:18;38.47;;;14.60;;
69894;SDS011;57172;52.034;5.090;2023-02-10T03:50:45;32.78;;;13.18;;
69894;SDS011;57172;52.034;5.090;2023-02-10T03:53:14;28.17;;;10.75;;
69894;SDS011;57172;52.034;5.090;2023-02-10T03:55:41;38.80;;;15.37;;
69894;SDS011;57172;52.034;5.090;2023-02-10T03:58:07;35.28;;;15.40;;
69894;SDS011;57172;52.034;5.090;2023-02-10T04:00:34;45.72;;;16.25;;
69894;SDS011;57172;52.034;5.090;2023-02-10T04:03:02;34.22;;;14.90;;
69894;SDS011;57172;52.034;5.090;2023-02-10T04:05:28;33.83;;;12.82;;
69894;SDS011;57172;52.034;5.090;2023-02-10T04:07:55;39.57;;;15.40;;
69894;SDS011;57172;52.034;5.090;2023-02-10T04:10:22;35.17;;;14.52;;
69894;SDS011;57172;52.034;5.090;2023-02-10T04:12:49;37.72;;;16.58;;
69894;SDS011;57172;52.034;5.090;2023-02-10T04:15:16;33.50;;;14.73;;
69894;SDS011;57172;52.034;5.090;2023-02-10T04:17:43;45.05;;;17.35;;
69894;SDS011;57172;52.034;5.090;2023-02-10T04:20:14;41.13;;;16.90;;
69894;SDS011;57172;52.034;5.090;2023-02-10T04:22:41;42.20;;;16.23;;
69894;SDS011;57172;52.034;5.090;2023-02-10T04:25:09;37.30;;;14.13;;
69894;SDS011;57172;52.034;5.090;2023-02-10T04:27:36;40.05;;;17.05;;
69894;SDS011;57172;52.034;5.090;2023-02-10T04:30:03;44.33;;;17.10;;
69894;SDS011;57172;52.034;5.090;2023-02-10T04:32:31;42.93;;;16.17;;
69894;SDS011;57172;52.034;5.090;2023-02-10T04:34:58;44.30;;;17.33;;
69894;SDS011;57172;52.034;5.090;2023-02-10T04:37:24;45.20;;;18.73;;
69894;SDS011;57172;52.034;5.090;2023-02-10T04:39:51;48.55;;;18.27;;
69894;SDS011;57172;52.034;5.090;2023-02-10T04:42:18;32.90;;;13.35;;
69894;SDS011;57172;52.034;5.090;2023-02-10T04:44:45;40.77;;;16.90;;
69894;SDS011;57172;52.034;5.090;2023-02-10T04:47:12;49.92;;;19.00;;
69894;SDS011;57172;52.034;5.090;2023-02-10T04:49:39;37.65;;;14.82;;
69894;SDS011;57172;52.034;5.090;2023-02-10T04:52:06;50.22;;;18.00;;
69894;SDS011;57172;52.034;5.090;2023-02-10T04:54:33;47.88;;;17.85;;
69894;SDS011;57172;52.034;5.090;2023-02-10T04:56:59;49.47;;;18.27;;
69894;SDS011;57172;52.034;5.090;2023-02-10T04:59:26;49.20;;;17.10;;
69894;SDS011;57172;52.034;5.090;2023-02-10T05:01:53;44.67;;;17.20;;
69894;SDS011;57172;52.034;5.090;2023-02-10T05:04:20;47.13;;;17.55;;
69894;SDS011;57172;52.034;5.090;2023-02-10T05:06:48;50.88;;;17.98;;
69894;SDS011;57172;52.034;5.090;2023-02-10T05:09:14;49.47;;;17.63;;
69894;SDS011;57172;52.034;5.090;2023-02-10T05:11:41;46.95;;;17.08;;
69894;SDS011;57172;52.034;5.090;2023-02-10T05:14:09;43.15;;;15.63;;
69894;SDS011;57172;52.034;5.090;2023-02-10T05:16:36;38.47;;;16.48;;
69894;SDS011;57172;52.034;5.090;2023-02-10T05:19:03;45.90;;;16.55;;
69894;SDS011;57172;52.034;5.090;2023-02-10T05:21:30;41.07;;;16.47;;
69894;SDS011;57172;52.034;5.090;2023-02-10T05:23:57;44.42;;;17.10;;
69894;SDS011;57172;52.034;5.090;2023-02-10T05:26:25;45.30;;;16.55;;
69894;SDS011;57172;52.034;5.090;2023-02-10T05:28:51;42.00;;;16.02;;
69894;SDS011;57172;52.034;5.090;2023-02-10T05:31:18;40.13;;;16.88;;
69894;SDS011;57172;52.034;5.090;2023-02-10T05:33:45;42.07;;;15.93;;
69894;SDS011;57172;52.034;5.090;2023-02-10T05:36:12;47.45;;;18.27;;
69894;SDS011;57172;52.034;5.090;2023-02-10T05:38:39;43.28;;;17.15;;
69894;SDS011;57172;52.034;5.090;2023-02-10T05:41:26;38.53;;;14.15;;
69894;SDS011;57172;52.034;5.090;2023-02-10T05:43:53;38.55;;;15.65;;
69894;SDS011;57172;52.034;5.090;2023-02-10T05:46:20;45.47;;;16.23;;
69894;SDS011;57172;52.034;5.090;2023-02-10T05:48:46;44.30;;;18.58;;
69894;SDS011;57172;52.034;5.090;2023-02-10T05:51:13;46.53;;;17.95;;
69894;SDS011;57172;52.034;5.090;2023-02-10T05:53:40;40.35;;;16.42;;
69894;SDS011;57172;52.034;5.090;2023-02-10T05:56:07;46.10;;;17.60;;
69894;SDS011;57172;52.034;5.090;2023-02-10T05:58:34;44.20;;;16.70;;
69894;SDS011;57172;52.034;5.090;2023-02-10T06:01:05;41.45;;;16.92;;
69894;SDS011;57172;52.034;5.090;2023-02-10T06:03:33;41.55;;;15.35;;
69894;SDS011;57172;52.034;5.090;2023-02-10T06:06:00;38.97;;;15.73;;
69894;SDS011;57172;52.034;5.090;2023-02-10T06:08:27;42.67;;;16.17;;
69894;SDS011;57172;52.034;5.090;2023-02-10T06:10:54;34.37;;;14.80;;
69894;SDS011;57172;52.034;5.090;2023-02-10T06:13:21;38.97;;;15.25;;
69894;SDS011;57172;52.034;5.090;2023-02-10T06:15:48;36.70;;;15.27;;
69894;SDS011;57172;52.034;5.090;2023-02-10T06:18:15;39.13;;;13.88;;
69894;SDS011;57172;52.034;5.090;2023-02-10T06:20:44;33.28;;;12.93;;
69894;SDS011;57172;52.034;5.090;2023-02-10T06:23:12;27.20;;;12.03;;
69894;SDS011;57172;52.034;5.090;2023-02-10T06:25:39;31.48;;;13.25;;
69894;SDS011;57172;52.034;5.090;2023-02-10T06:28:06;36.08;;;15.45;;
69894;SDS011;57172;52.034;5.090;2023-02-10T06:30:33;32.33;;;15.40;;
69894;SDS011;57172;52.034;5.090;2023-02-10T06:33:01;35.50;;;14.85;;
69894;SDS011;57172;52.034;5.090;2023-02-10T06:35:28;30.97;;;14.07;;
69894;SDS011;57172;52.034;5.090;2023-02-10T06:37:54;37.58;;;13.77;;
69894;SDS011;57172;52.034;5.090;2023-02-10T06:40:21;35.28;;;13.20;;
69894;SDS011;57172;52.034;5.090;2023-02-10T06:42:48;35.05;;;14.48;;
69894;SDS011;57172;52.034;5.090;2023-02-10T06:45:15;32.08;;;13.90;;
69894;SDS011;57172;52.034;5.090;2023-02-10T06:47:42;24.20;;;10.77;;
69894;SDS011;57172;52.034;5.090;2023-02-10T06:50:09;29.50;;;13.55;;
69894;SDS011;57172;52.034;5.090;2023-02-10T06:52:35;31.00;;;13.63;;
69894;SDS011;57172;52.034;5.090;2023-02-10T06:55:05;33.35;;;13.95;;
69894;SDS011;57172;52.034;5.090;2023-02-10T06:57:32;31.83;;;14.05;;
69894;SDS011;57172;52.034;5.090;2023-02-10T07:00:05;32.30;;;12.90;;
69894;SDS011;57172;52.034;5.090;2023-02-10T07:02:36;28.33;;;12.43;;
69894;SDS011;57172;52.034;5.090;2023-02-10T07:05:07;28.42;;;12.82;;
69894;SDS011;57172;52.034;5.090;2023-02-10T07:07:34;25.10;;;11.38;;
69894;SDS011;57172;52.034;5.090;2023-02-10T07:10:02;25.90;;;10.93;;
69894;SDS011;57172;52.034;5.090;2023-02-10T07:12:29;31.23;;;13.70;;
69894;SDS011;57172;52.034;5.090;2023-02-10T07:14:56;29.52;;;12.27;;
69894;SDS011;57172;52.034;5.090;2023-02-10T07:17:23;27.88;;;12.85;;
69894;SDS011;57172;52.034;5.090;2023-02-10T07:19:50;27.75;;;10.80;;
69894;SDS011;57172;52.034;5.090;2023-02-10T07:22:17;29.52;;;12.90;;
69894;SDS011;57172;52.034;5.090;2023-02-10T07:24:44;30.67;;;12.57;;
69894;SDS011;57172;52.034;5.090;2023-02-10T07:27:10;27.75;;;12.07;;
69894;SDS011;57172;52.034;5.090;2023-02-10T07:29:37;33.55;;;13.38;;
69894;SDS011;57172;52.034;5.090;2023-02-10T07:32:04;27.38;;;12.18;;
69894;SDS011;57172;52.034;5.090;2023-02-10T07:34:31;30.80;;;13.02;;
69894;SDS011;57172;52.034;5.090;2023-02-10T07:37:00;30.83;;;13.43;;
69894;SDS011;57172;52.034;5.090;2023-02-10T07:39:27;30.63;;;13.85;;
69894;SDS011;57172;52.034;5.090;2023-02-10T07:41:54;22.75;;;10.80;;
69894;SDS011;57172;52.034;5.090;2023-02-10T07:44:29;25.42;;;12.15;;
69894;SDS011;57172;52.034;5.090;2023-02-10T07:46:56;34.13;;;13.73;;
69894;SDS011;57172;52.034;5.090;2023-02-10T07:49:23;29.83;;;13.30;;
69894;SDS011;57172;52.034;5.090;2023-02-10T07:51:50;29.58;;;13.90;;
69894;SDS011;57172;52.034;5.090;2023-02-10T07:54:17;31.48;;;15.00;;
69894;SDS011;57172;52.034;5.090;2023-02-10T07:56:44;29.20;;;14.45;;
69894;SDS011;57172;52.034;5.090;2023-02-10T07:59:11;32.42;;;13.90;;
69894;SDS011;57172;52.034;5.090;2023-02-10T08:01:39;28.90;;;13.07;;
69894;SDS011;57172;52.034;5.090;2023-02-10T08:04:09;32.83;;;14.30;;
69894;SDS011;57172;52.034;5.090;2023-02-10T08:06:36;27.55;;;13.10;;
69894;SDS011;57172;52.034;5.090;2023-02-10T08:09:03;32.17;;;14.55;;
69894;SDS011;57172;52.034;5.090;2023-02-10T08:11:30;30.58;;;14.13;;
69894;SDS011;57172;52.034;5.090;2023-02-10T08:13:58;31.30;;;14.37;;
69894;SDS011;57172;52.034;5.090;2023-02-10T08:16:27;34.67;;;16.60;;
69894;SDS011;57172;52.034;5.090;2023-02-10T08:18:54;30.98;;;14.65;;
69894;SDS011;57172;52.034;5.090;2023-02-10T08:21:24;33.47;;;15.35;;
69894;SDS011;57172;52.034;5.090;2023-02-10T08:23:52;33.08;;;14.77;;
69894;SDS011;57172;52.034;5.090;2023-02-10T08:26:21;32.63;;;14.60;;
69894;SDS011;57172;52.034;5.090;2023-02-10T08:28:48;34.80;;;15.65;;
69894;SDS011;57172;52.034;5.090;2023-02-10T08:31:16;31.58;;;14.60;;
69894;SDS011;57172;52.034;5.090;2023-02-10T08:33:43;31.90;;;14.70;;
69894;SDS011;57172;52.034;5.090;2023-02-10T08:36:13;30.00;;;13.48;;
69894;SDS011;57172;52.034;5.090;2023-02-10T08:38:41;29.80;;;13.90;;
69894;SDS011;57172;52.034;5.090;2023-02-10T08:41:08;29.85;;;14.60;;
69894;SDS011;57172;52.034;5.090;2023-02-10T08:43:35;28.95;;;14.05;;
69894;SDS011;57172;52.034;5.090;2023-02-10T08:46:02;31.40;;;13.50;;
69894;SDS011;57172;52.034;5.090;2023-02-10T08:48:30;32.92;;;15.52;;
69894;SDS011;57172;52.034;5.090;2023-02-10T08:50:57;30.20;;;14.67;;
69894;SDS011;57172;52.034;5.090;2023-02-10T08:53:24;29.58;;;14.55;;
69894;SDS011;57172;52.034;5.090;2023-02-10T08:55:56;30.23;;;15.48;;
69894;SDS011;57172;52.034;5.090;2023-02-10T08:58:27;30.25;;;15.27;;
69894;SDS011;57172;52.034;5.090;2023-02-10T09:00:54;22.30;;;10.18;;
69894;SDS011;57172;52.034;5.090;2023-02-10T09:03:21;30.10;;;14.73;;
69894;SDS011;57172;52.034;5.090;2023-02-10T09:05:48;30.67;;;15.20;;
69894;SDS011;57172;52.034;5.090;2023-02-10T09:08:17;31.67;;;15.85;;
69894;SDS011;57172;52.034;5.090;2023-02-10T09:10:45;32.55;;;14.77;;
69894;SDS011;57172;52.034;5.090;2023-02-10T09:13:12;41.00;;;19.10;;
69894;SDS011;57172;52.034;5.090;2023-02-10T09:15:40;28.17;;;14.60;;
69894;SDS011;57172;52.034;5.090;2023-02-10T09:18:08;29.02;;;15.63;;
69894;SDS011;57172;52.034;5.090;2023-02-10T09:20:38;29.23;;;14.88;;
69894;SDS011;57172;52.034;5.090;2023-02-10T09:23:05;35.17;;;17.50;;
69894;SDS011;57172;52.034;5.090;2023-02-10T09:25:32;35.80;;;17.58;;
69894;SDS011;57172;52.034;5.090;2023-02-10T09:27:59;30.00;;;15.30;;
69894;SDS011;57172;52.034;5.090;2023-02-10T09:30:26;32.30;;;16.65;;
69894;SDS011;57172;52.034;5.090;2023-02-10T09:32:53;27.88;;;14.20;;
69894;SDS011;57172;52.034;5.090;2023-02-10T09:35:20;32.92;;;16.95;;
69894;SDS011;57172;52.034;5.090;2023-02-10T09:37:47;28.80;;;15.30;;
69894;SDS011;57172;52.034;5.090;2023-02-10T09:40:22;28.60;;;13.90;;
69894;SDS011;57172;52.034;5.090;2023-02-10T09:43:00;33.20;;;16.80;;
69894;SDS011;57172;52.034;5.090;2023-02-10T09:45:45;31.23;;;15.60;;
69894;SDS011;57172;52.034;5.090;2023-02-10T09:51:32;25.15;;;14.02;;
69894;SDS011;57172;52.034;5.090;2023-02-10T09:54:18;23.00;;;12.63;;
69894;SDS011;57172;52.034;5.090;2023-02-10T09:56:45;24.70;;;14.02;;
69894;SDS011;57172;52.034;5.090;2023-02-10T09:59:15;26.42;;;13.77;;
69894;SDS011;57172;52.034;5.090;2023-02-10T10:01:51;22.60;;;12.88;;
69894;SDS011;57172;52.034;5.090;2023-02-10T10:04:23;27.30;;;14.88;;
69894;SDS011;57172;52.034;5.090;2023-02-10T10:06:57;24.60;;;12.73;;
69894;SDS011;57172;52.034;5.090;2023-02-10T10:09:46;22.33;;;12.88;;
69894;SDS011;57172;52.034;5.090;2023-02-10T10:12:27;23.15;;;13.55;;
69894;SDS011;57172;52.034;5.090;2023-02-10T10:14:54;23.65;;;12.38;;
69894;SDS011;57172;52.034;5.090;2023-02-10T10:31:18;23.98;;;14.13;;
69894;SDS011;57172;52.034;5.090;2023-02-10T10:34:13;23.73;;;12.57;;
69894;SDS011;57172;52.034;5.090;2023-02-10T10:36:44;21.75;;;12.98;;
69894;SDS011;57172;52.034;5.090;2023-02-10T10:48:05;21.00;;;13.00;;
69894;SDS011;57172;52.034;5.090;2023-02-10T10:50:30;21.88;;;12.45;;
69894;SDS011;57172;52.034;5.090;2023-02-10T10:52:56;22.63;;;13.27;;
69894;SDS011;57172;52.034;5.090;2023-02-10T10:55:29;23.35;;;13.48;;
69894;SDS011;57172;52.034;5.090;2023-02-10T10:58:25;21.15;;;12.98;;
69894;SDS011;57172;52.034;5.090;2023-02-10T11:00:57;23.80;;;12.87;;
69894;SDS011;57172;52.034;5.090;2023-02-10T11:03:25;21.25;;;12.35;;
69894;SDS011;57172;52.034;5.090;2023-02-10T11:06:06;21.77;;;12.75;;
69894;SDS011;57172;52.034;5.090;2023-02-10T11:08:40;22.48;;;12.93;;
69894;SDS011;57172;52.034;5.090;2023-02-10T11:11:10;22.38;;;12.57;;
69894;SDS011;57172;52.034;5.090;2023-02-10T11:13:56;23.07;;;12.23;;
69894;SDS011;57172;52.034;5.090;2023-02-10T11:16:24;23.48;;;12.98;;
69894;SDS011;57172;52.034;5.090;2023-02-10T11:21:18;23.27;;;13.00;;
69894;SDS011;57172;52.034;5.090;2023-02-10T11:23:48;22.98;;;13.80;;
69894;SDS011;57172;52.034;5.090;2023-02-10T11:26:23;23.47;;;13.73;;
69894;SDS011;57172;52.034;5.090;2023-02-10T11:28:51;21.48;;;13.75;;
69894;SDS011;57172;52.034;5.090;2023-02-10T11:34:03;24.38;;;14.13;;
69894;SDS011;57172;52.034;5.090;2023-02-10T11:36:46;25.15;;;14.15;;
69894;SDS011;57172;52.034;5.090;2023-02-10T11:39:22;23.03;;;13.37;;
69894;SDS011;57172;52.034;5.090;2023-02-10T11:41:53;25.40;;;14.80;;
69894;SDS011;57172;52.034;5.090;2023-02-10T11:44:25;29.77;;;13.48;;
69894;SDS011;57172;52.034;5.090;2023-02-10T11:49:26;27.85;;;15.55;;
69894;SDS011;57172;52.034;5.090;2023-02-10T11:51:58;23.80;;;13.23;;
69894;SDS011;57172;52.034;5.090;2023-02-10T11:54:27;22.23;;;13.02;;
69894;SDS011;57172;52.034;5.090;2023-02-10T11:59:59;27.52;;;14.90;;
69894;SDS011;57172;52.034;5.090;2023-02-10T12:05:28;29.77;;;15.33;;
69894;SDS011;57172;52.034;5.090;2023-02-10T12:22:27;26.80;;;13.98;;
69894;SDS011;57172;52.034;5.090;2023-02-10T12:25:03;25.48;;;13.48;;
69894;SDS011;57172;52.034;5.090;2023-02-10T12:33:02;40.23;;;19.03;;
69894;SDS011;57172;52.034;5.090;2023-02-10T12:47:32;37.40;;;18.40;;
69894;SDS011;57172;52.034;5.090;2023-02-10T12:53:18;36.00;;;17.40;;
69894;SDS011;57172;52.034;5.090;2023-02-10T12:56:01;31.70;;;16.67;;
69894;SDS011;57172;52.034;5.090;2023-02-10T12:58:43;28.10;;;14.00;;
69894;SDS011;57172;52.034;5.090;2023-02-10T13:04:17;32.92;;;15.55;;
69894;SDS011;57172;52.034;5.090;2023-02-10T13:06:57;34.35;;;17.83;;
69894;SDS011;57172;52.034;5.090;2023-02-10T13:12:15;35.13;;;17.95;;
69894;SDS011;57172;52.034;5.090;2023-02-10T13:15:06;31.10;;;16.90;;
69894;SDS011;57172;52.034;5.090;2023-02-10T13:18:01;35.95;;;17.00;;
69894;SDS011;57172;52.034;5.090;2023-02-10T13:23:31;34.75;;;17.75;;
69894;SDS011;57172;52.034;5.090;2023-02-10T13:29:06;39.77;;;19.40;;
69894;SDS011;57172;52.034;5.090;2023-02-10T13:36:54;41.47;;;20.40;;
69894;SDS011;57172;52.034;5.090;2023-02-10T13:39:26;42.55;;;20.77;;
69894;SDS011;57172;52.034;5.090;2023-02-10T13:42:14;38.57;;;20.03;;
69894;SDS011;57172;52.034;5.090;2023-02-10T13:44:55;42.15;;;20.80;;
69894;SDS011;57172;52.034;5.090;2023-02-10T13:47:27;40.20;;;19.70;;
69894;SDS011;57172;52.034;5.090;2023-02-10T13:50:42;36.30;;;18.10;;
69894;SDS011;57172;52.034;5.090;2023-02-10T13:58:59;34.97;;;18.70;;
69894;SDS011;57172;52.034;5.090;2023-02-10T14:06:46;45.65;;;21.67;;
69894;SDS011;57172;52.034;5.090;2023-02-10T14:09:33;50.07;;;24.37;;
69894;SDS011;57172;52.034;5.090;2023-02-10T14:12:04;41.35;;;20.88;;
69894;SDS011;57172;52.034;5.090;2023-02-10T14:14:48;45.72;;;23.55;;
69894;SDS011;57172;52.034;5.090;2023-02-10T14:17:22;46.15;;;22.67;;
69894;SDS011;57172;52.034;5.090;2023-02-10T14:19:55;40.63;;;21.67;;
69894;SDS011;57172;52.034;5.090;2023-02-10T14:22:29;45.97;;;23.20;;
69894;SDS011;57172;52.034;5.090;2023-02-10T14:28:02;42.65;;;22.35;;
69894;SDS011;57172;52.034;5.090;2023-02-10T14:33:06;37.38;;;18.73;;
69894;SDS011;57172;52.034;5.090;2023-02-10T14:35:51;32.47;;;16.50;;
69894;SDS011;57172;52.034;5.090;2023-02-10T14:38:30;38.22;;;18.80;;
69894;SDS011;57172;52.034;5.090;2023-02-10T14:41:00;34.65;;;17.67;;
69894;SDS011;57172;52.034;5.090;2023-02-10T14:43:45;35.22;;;18.08;;
69894;SDS011;57172;52.034;5.090;2023-02-10T14:49:02;36.70;;;18.73;;
69894;SDS011;57172;52.034;5.090;2023-02-10T14:51:40;28.25;;;15.25;;
69894;SDS011;57172;52.034;5.090;2023-02-10T14:54:17;38.50;;;18.38;;
69894;SDS011;57172;52.034;5.090;2023-02-10T14:56:54;36.72;;;18.17;;
69894;SDS011;57172;52.034;5.090;2023-02-10T14:59:28;36.08;;;17.65;;
69894;SDS011;57172;52.034;5.090;2023-02-10T15:01:57;40.90;;;19.40;;
69894;SDS011;57172;52.034;5.090;2023-02-10T15:04:43;38.08;;;17.42;;
69894;SDS011;57172;52.034;5.090;2023-02-10T15:07:16;55.92;;;26.17;;
69894;SDS011;57172;52.034;5.090;2023-02-10T15:09:47;38.15;;;18.13;;
69894;SDS011;57172;52.034;5.090;2023-02-10T15:12:15;37.67;;;17.60;;
69894;SDS011;57172;52.034;5.090;2023-02-10T15:18:04;36.42;;;16.23;;
69894;SDS011;57172;52.034;5.090;2023-02-10T15:27:54;40.23;;;17.67;;
69894;SDS011;57172;52.034;5.090;2023-02-10T15:30:23;35.88;;;17.02;;
69894;SDS011;57172;52.034;5.090;2023-02-10T15:32:54;36.45;;;16.70;;
69894;SDS011;57172;52.034;5.090;2023-02-10T15:35:23;35.20;;;17.55;;
69894;SDS011;57172;52.034;5.090;2023-02-10T15:37:52;34.03;;;17.27;;
69894;SDS011;57172;52.034;5.090;2023-02-10T15:40:22;37.47;;;16.20;;
69894;SDS011;57172;52.034;5.090;2023-02-10T15:43:20;38.55;;;17.73;;
69894;SDS011;57172;52.034;5.090;2023-02-10T15:45:48;37.90;;;17.88;;
69894;SDS011;57172;52.034;5.090;2023-02-10T15:48:18;38.05;;;17.63;;
69894;SDS011;57172;52.034;5.090;2023-02-10T15:51:04;37.72;;;16.20;;
69894;SDS011;57172;52.034;5.090;2023-02-10T15:53:31;38.70;;;18.67;;
69894;SDS011;57172;52.034;5.090;2023-02-10T15:55:58;36.50;;;17.25;;
69894;SDS011;57172;52.034;5.090;2023-02-10T15:58:25;34.70;;;16.80;;
69894;SDS011;57172;52.034;5.090;2023-02-10T16:00:52;43.35;;;21.05;;
69894;SDS011;57172;52.034;5.090;2023-02-10T16:03:19;33.15;;;16.38;;
69894;SDS011;57172;52.034;5.090;2023-02-10T16:05:45;32.70;;;16.03;;
69894;SDS011;57172;52.034;5.090;2023-02-10T16:08:19;38.08;;;17.38;;
69894;SDS011;57172;52.034;5.090;2023-02-10T16:10:47;39.63;;;18.17;;
69894;SDS011;57172;52.034;5.090;2023-02-10T16:13:15;39.05;;;18.35;;
69894;SDS011;57172;52.034;5.090;2023-02-10T16:15:43;37.55;;;17.25;;
69894;SDS011;57172;52.034;5.090;2023-02-10T16:18:14;36.83;;;17.90;;
69894;SDS011;57172;52.034;5.090;2023-02-10T16:20:44;33.53;;;15.52;;
69894;SDS011;57172;52.034;5.090;2023-02-10T16:23:12;41.10;;;18.23;;
69894;SDS011;57172;52.034;5.090;2023-02-10T16:25:40;40.00;;;18.40;;
69894;SDS011;57172;52.034;5.090;2023-02-10T16:28:09;44.83;;;18.50;;
69894;SDS011;57172;52.034;5.090;2023-02-10T16:30:39;43.50;;;21.30;;
69894;SDS011;57172;52.034;5.090;2023-02-10T16:33:05;60.42;;;26.92;;
69894;SDS011;57172;52.034;5.090;2023-02-10T16:35:32;43.03;;;19.75;;
69894;SDS011;57172;52.034;5.090;2023-02-10T16:38:01;35.15;;;17.17;;
69894;SDS011;57172;52.034;5.090;2023-02-10T16:40:35;43.88;;;19.27;;
69894;SDS011;57172;52.034;5.090;2023-02-10T16:43:12;32.47;;;15.57;;
69894;SDS011;57172;52.034;5.090;2023-02-10T16:45:39;39.40;;;18.65;;
69894;SDS011;57172;52.034;5.090;2023-02-10T16:48:05;34.70;;;16.35;;
69894;SDS011;57172;52.034;5.090;2023-02-10T16:50:34;41.03;;;17.20;;
69894;SDS011;57172;52.034;5.090;2023-02-10T16:53:03;39.72;;;19.42;;
69894;SDS011;57172;52.034;5.090;2023-02-10T16:55:31;40.10;;;19.50;;
69894;SDS011;57172;52.034;5.090;2023-02-10T16:57:59;38.67;;;18.42;;
69894;SDS011;57172;52.034;5.090;2023-02-10T17:00:27;38.13;;;17.65;;
69894;SDS011;57172;52.034;5.090;2023-02-10T17:02:54;37.55;;;16.48;;
69894;SDS011;57172;52.034;5.090;2023-02-10T17:05:21;35.75;;;15.77;;
69894;SDS011;57172;52.034;5.090;2023-02-10T17:07:49;42.10;;;19.13;;